createdAt,value
2023-03-29T00:00:09.286Z,10.43
2023-03-29T00:00:41.128Z,11.23
2023-03-29T00:01:12.862Z,9.32
2023-03-29T00:02:04.626Z,8.45
2023-03-29T00:02:36.308Z,7.72
2023-03-29T00:03:08.482Z,9.02
2023-03-29T00:03:42.565Z,6.63
2023-03-29T00:04:15.983Z,7.45
2023-03-29T00:04:47.633Z,7.93
2023-03-29T00:05:25.380Z,7.45
2023-03-29T00:06:04.203Z,6.65
2023-03-29T00:06:36.020Z,6.93
2023-03-29T00:07:07.754Z,7.53
2023-03-29T00:07:39.398Z,5.97
2023-03-29T00:08:14.501Z,5.88
2023-03-29T00:08:46.294Z,5.57
2023-03-29T00:09:18.361Z,5.88
2023-03-29T00:09:49.963Z,5.43
2023-03-29T00:10:24.280Z,5.80
2023-03-29T00:10:57.085Z,5.63
2023-03-29T00:11:28.795Z,5.65
2023-03-29T00:12:01.781Z,5.90
2023-03-29T00:12:34.060Z,6.57
2023-03-29T00:13:05.924Z,6.32
2023-03-29T00:13:38.320Z,5.50
2023-03-29T00:14:10.232Z,5.95
2023-03-29T00:14:41.842Z,5.82
2023-03-29T00:15:13.770Z,5.78
2023-03-29T00:15:45.419Z,10.18
2023-03-29T00:16:17.875Z,8.43
2023-03-29T00:16:49.535Z,9.52
2023-03-29T00:17:21.218Z,10.05
2023-03-29T00:17:52.972Z,10.13
2023-03-29T00:18:24.689Z,12.38
2023-03-29T00:18:56.637Z,14.93
2023-03-29T00:19:29.136Z,11.40
2023-03-29T00:20:00.867Z,9.45
2023-03-29T00:20:32.450Z,9.38
2023-03-29T00:21:04.625Z,7.55
2023-03-29T00:21:36.306Z,7.75
2023-03-29T00:22:08.412Z,8.63
2023-03-29T00:22:42.236Z,7.80
2023-03-29T00:23:14.034Z,8.23
2023-03-29T00:23:45.869Z,7.00
2023-03-29T00:24:17.684Z,8.02
2023-03-29T00:24:49.466Z,7.40
2023-03-29T00:25:21.118Z,7.82
2023-03-29T00:25:56.494Z,6.65
2023-03-29T00:26:28.466Z,6.97
2023-03-29T00:27:00.479Z,7.07
2023-03-29T00:27:32.142Z,6.18
2023-03-29T00:28:03.995Z,7.72
2023-03-29T00:28:35.658Z,5.80
2023-03-29T00:29:07.237Z,7.05
2023-03-29T00:29:58.023Z,8.73
2023-03-29T00:30:29.775Z,6.28
2023-03-29T00:31:14.014Z,6.20
2023-03-29T00:31:51.448Z,7.32
2023-03-29T00:32:23.227Z,7.47
2023-03-29T00:32:55.036Z,6.80
2023-03-29T00:33:26.799Z,6.70
2023-03-29T00:33:58.423Z,7.65
2023-03-29T00:34:30.957Z,7.75
2023-03-29T00:35:02.672Z,7.97
2023-03-29T00:35:34.308Z,8.82
2023-03-29T00:36:07.522Z,8.30
2023-03-29T00:36:40.639Z,8.35
2023-03-29T00:37:14.929Z,9.07
2023-03-29T00:37:50.961Z,6.88
2023-03-29T00:38:22.763Z,8.27
2023-03-29T00:38:56.632Z,7.28
2023-03-29T00:39:29.833Z,8.50
2023-03-29T00:40:01.452Z,6.45
2023-03-29T00:40:34.405Z,7.10
2023-03-29T00:41:07.939Z,8.68
2023-03-29T00:41:39.519Z,7.43
2023-03-29T00:42:17.457Z,9.10
2023-03-29T00:42:49.104Z,7.68
2023-03-29T00:43:20.980Z,7.80
2023-03-29T00:44:01.005Z,9.98
2023-03-29T00:44:54.319Z,7.93
2023-03-29T00:45:30.497Z,8.63
2023-03-29T00:46:02.296Z,12.55
2023-03-29T00:46:35.051Z,14.85
2023-03-29T00:47:06.927Z,14.55
2023-03-29T00:47:44.549Z,12.00
2023-03-29T00:48:20.809Z,13.02
2023-03-29T00:48:53.970Z,13.30
2023-03-29T00:49:26.399Z,13.98
2023-03-29T00:50:03.004Z,13.65
2023-03-29T00:50:47.384Z,12.48
2023-03-29T00:51:21.748Z,11.65
2023-03-29T00:51:53.487Z,12.18
2023-03-29T00:52:30.172Z,12.48
2023-03-29T00:53:15.168Z,10.50
2023-03-29T00:53:53.253Z,11.25
2023-03-29T00:54:26.228Z,8.82
2023-03-29T00:55:01.754Z,10.77
2023-03-29T00:55:42.953Z,12.43
2023-03-29T00:56:24.264Z,11.80
2023-03-29T00:56:55.967Z,12.68
2023-03-29T00:57:30.143Z,14.73
2023-03-29T00:58:04.532Z,17.95
2023-03-29T00:58:47.992Z,21.80
2023-03-29T00:59:24.505Z,24.20
2023-03-29T00:59:58.003Z,20.45
2023-03-29T01:00:35.134Z,16.98
2023-03-29T01:01:17.583Z,17.02
2023-03-29T01:01:57.393Z,15.35
2023-03-29T01:02:35.032Z,15.73
2023-03-29T01:03:14.461Z,14.63
2023-03-29T01:03:54.504Z,15.00
2023-03-29T01:04:29.640Z,13.43
2023-03-29T01:05:20.223Z,14.85
2023-03-29T01:05:56.741Z,14.43
2023-03-29T01:06:29.672Z,12.68
2023-03-29T01:07:09.383Z,15.52
2023-03-29T01:07:48.394Z,13.65
2023-03-29T01:08:27.652Z,15.43
2023-03-29T01:09:03.050Z,14.27
2023-03-29T01:09:38.989Z,16.05
2023-03-29T01:10:14.667Z,15.82
2023-03-29T01:10:55.217Z,16.27
2023-03-29T01:11:45.827Z,18.75
2023-03-29T01:12:22.359Z,16.77
2023-03-29T01:13:01.547Z,19.23
2023-03-29T01:14:04.304Z,16.02
2023-03-29T01:14:45.384Z,13.35
2023-03-29T01:15:24.084Z,15.18
2023-03-29T01:15:57.885Z,15.65
2023-03-29T01:16:33.129Z,13.57
2023-03-29T01:17:05.853Z,13.75
2023-03-29T01:17:38.805Z,13.27
2023-03-29T01:18:10.764Z,13.20
2023-03-29T01:18:42.396Z,14.15
2023-03-29T01:19:17.717Z,11.52
2023-03-29T01:19:59.228Z,13.60
2023-03-29T01:20:55.657Z,14.25
2023-03-29T01:21:45.171Z,13.07
2023-03-29T01:22:45.680Z,11.77
2023-03-29T01:23:44.161Z,10.13
2023-03-29T01:24:44.809Z,11.15
2023-03-29T01:25:26.312Z,11.50
2023-03-29T01:26:11.381Z,11.70
2023-03-29T01:27:12.678Z,12.68
2023-03-29T01:28:06.422Z,12.65
2023-03-29T01:29:03.815Z,11.02
2023-03-29T01:30:01.178Z,10.65
2023-03-29T01:30:37.443Z,12.80
2023-03-29T01:31:15.597Z,11.65
2023-03-29T01:31:52.911Z,12.52
2023-03-29T01:32:48.153Z,10.15
2023-03-29T01:33:24.095Z,11.73
2023-03-29T01:34:22.082Z,13.00
2023-03-29T01:35:00.174Z,9.65
2023-03-29T01:35:45.467Z,9.50
2023-03-29T01:36:27.391Z,9.55
2023-03-29T01:37:57.931Z,9.00
2023-03-29T01:38:42.951Z,11.20
2023-03-29T01:39:14.577Z,11.98
2023-03-29T01:39:46.276Z,11.57
2023-03-29T01:40:17.985Z,11.27
2023-03-29T01:40:49.771Z,10.82
2023-03-29T01:41:23.063Z,12.75
2023-03-29T01:42:19.156Z,10.30
2023-03-29T01:43:03.175Z,11.57
2023-03-29T01:43:45.169Z,10.60
2023-03-29T01:44:28.718Z,9.77
2023-03-29T01:45:18.407Z,16.67
2023-03-29T01:46:05.171Z,19.83
2023-03-29T01:46:46.534Z,16.77
2023-03-29T01:47:55.780Z,16.92
2023-03-29T01:48:37.266Z,14.43
2023-03-29T01:49:20.292Z,23.05
2023-03-29T01:50:18.249Z,17.00
2023-03-29T01:50:55.989Z,18.23
2023-03-29T01:51:57.805Z,26.05
2023-03-29T01:52:35.917Z,26.42
2023-03-29T01:53:18.247Z,30.80
2023-03-29T01:54:05.474Z,38.63
2023-03-29T01:54:41.583Z,41.53
2023-03-29T01:55:18.550Z,36.60
2023-03-29T01:55:54.707Z,31.20
2023-03-29T01:56:29.254Z,38.63
2023-03-29T01:57:05.167Z,39.83
2023-03-29T01:57:40.820Z,40.50
2023-03-29T01:58:14.430Z,41.88
2023-03-29T01:58:51.331Z,52.45
2023-03-29T01:59:28.343Z,59.58
2023-03-29T02:00:00.747Z,54.95
2023-03-29T02:00:35.028Z,61.97
2023-03-29T02:01:10.532Z,55.75
2023-03-29T02:01:49.448Z,55.10
2023-03-29T02:02:23.508Z,44.42
2023-03-29T02:03:00.399Z,30.67
2023-03-29T02:03:34.093Z,25.95
2023-03-29T02:04:10.775Z,16.80
2023-03-29T02:04:50.197Z,17.02
2023-03-29T02:05:23.137Z,14.50
2023-03-29T02:05:56.476Z,14.68
2023-03-29T02:06:28.840Z,13.43
2023-03-29T02:07:02.880Z,14.85
2023-03-29T02:07:37.521Z,11.75
2023-03-29T02:08:12.789Z,9.38
2023-03-29T02:08:45.571Z,11.18
2023-03-29T02:09:17.944Z,9.55
2023-03-29T02:09:52.733Z,10.45
2023-03-29T02:10:24.678Z,10.10
2023-03-29T02:10:56.422Z,8.07
2023-03-29T02:11:29.468Z,8.07
2023-03-29T02:12:02.079Z,9.50
2023-03-29T02:12:34.240Z,8.35
2023-03-29T02:13:06.236Z,9.18
2023-03-29T02:13:38.015Z,10.35
2023-03-29T02:14:10.009Z,11.73
2023-03-29T02:14:41.624Z,9.50
2023-03-29T02:15:16.422Z,11.20
2023-03-29T02:15:48.473Z,10.77
2023-03-29T02:16:20.863Z,12.30
2023-03-29T02:16:52.667Z,12.18
2023-03-29T02:17:28.498Z,13.63
2023-03-29T02:18:00.408Z,12.75
2023-03-29T02:18:32.204Z,12.27
2023-03-29T02:19:04.143Z,12.25
2023-03-29T02:19:36.284Z,10.02
2023-03-29T02:20:17.360Z,12.90
2023-03-29T02:20:50.896Z,10.75
2023-03-29T02:21:36.300Z,13.52
2023-03-29T02:22:10.448Z,10.57
2023-03-29T02:22:50.267Z,14.80
2023-03-29T02:23:45.621Z,15.00
2023-03-29T02:24:19.355Z,12.95
2023-03-29T02:24:54.663Z,13.75
2023-03-29T02:25:26.428Z,16.90
2023-03-29T02:25:58.845Z,14.95
2023-03-29T02:26:30.846Z,17.30
2023-03-29T02:27:03.121Z,17.20
2023-03-29T02:27:35.125Z,16.17
2023-03-29T02:28:07.587Z,15.43
2023-03-29T02:28:39.204Z,17.63
2023-03-29T02:29:11.135Z,17.27
2023-03-29T02:29:42.951Z,23.05
2023-03-29T02:30:18.531Z,24.90
2023-03-29T02:30:55.792Z,22.50
2023-03-29T02:31:30.410Z,22.48
2023-03-29T02:32:39.758Z,22.88
2023-03-29T02:33:18.426Z,17.67
2023-03-29T02:33:53.378Z,17.83
2023-03-29T02:34:50.300Z,16.13
2023-03-29T02:35:38.631Z,16.67
2023-03-29T02:36:14.880Z,17.48
2023-03-29T02:36:50.531Z,17.10
2023-03-29T02:37:26.683Z,16.27
2023-03-29T02:38:00.154Z,16.13
2023-03-29T02:38:32.805Z,17.75
2023-03-29T02:39:05.898Z,16.00
2023-03-29T02:39:38.706Z,15.95
2023-03-29T02:40:13.115Z,18.83
2023-03-29T02:40:46.868Z,19.15
2023-03-29T02:41:19.085Z,23.08
2023-03-29T02:41:52.124Z,23.73
2023-03-29T02:42:25.640Z,19.58
2023-03-29T02:42:59.287Z,23.38
2023-03-29T02:43:32.754Z,23.67
2023-03-29T02:44:08.294Z,20.15
2023-03-29T02:44:41.995Z,20.13
2023-03-29T02:45:17.339Z,21.70
2023-03-29T02:45:50.536Z,24.48
2023-03-29T02:46:22.508Z,21.95
2023-03-29T02:46:58.108Z,24.60
2023-03-29T02:47:37.220Z,27.00
2023-03-29T02:48:12.485Z,28.00
2023-03-29T02:48:47.574Z,30.08
2023-03-29T02:49:19.398Z,33.33
2023-03-29T02:49:51.207Z,30.98
2023-03-29T02:50:25.246Z,35.97
2023-03-29T02:51:01.287Z,35.90
2023-03-29T02:51:35.506Z,33.83
2023-03-29T02:52:12.786Z,37.60
2023-03-29T02:52:53.191Z,32.67
2023-03-29T02:53:32.450Z,24.00
2023-03-29T02:54:15.619Z,36.90
2023-03-29T02:54:51.374Z,34.65
2023-03-29T02:55:26.012Z,43.47
2023-03-29T02:55:57.911Z,46.10
2023-03-29T02:56:29.833Z,49.25
2023-03-29T02:57:06.866Z,43.33
2023-03-29T02:57:39.519Z,44.13
2023-03-29T02:58:13.557Z,46.08
2023-03-29T02:58:45.183Z,44.97
2023-03-29T02:59:22.681Z,48.72
2023-03-29T02:59:57.027Z,47.45
2023-03-29T03:00:28.842Z,52.05
2023-03-29T03:01:02.307Z,42.38
2023-03-29T03:01:34.384Z,43.30
2023-03-29T03:02:05.995Z,41.40
2023-03-29T03:02:38.688Z,40.13
2023-03-29T03:03:12.304Z,38.33
2023-03-29T03:03:45.304Z,43.10
2023-03-29T03:04:18.576Z,37.65
2023-03-29T03:04:50.152Z,30.48
2023-03-29T03:05:21.833Z,33.17
2023-03-29T03:05:53.951Z,38.30
2023-03-29T03:06:25.556Z,38.25
2023-03-29T03:06:57.699Z,34.22
2023-03-29T03:07:29.778Z,35.42
2023-03-29T03:08:02.661Z,33.95
2023-03-29T03:08:34.233Z,35.88
2023-03-29T03:09:06.842Z,33.53
2023-03-29T03:09:38.499Z,27.40
2023-03-29T03:10:10.534Z,33.65
2023-03-29T03:10:42.180Z,25.88
2023-03-29T03:11:15.318Z,26.35
2023-03-29T03:11:47.062Z,24.85
2023-03-29T03:12:18.632Z,26.35
2023-03-29T03:12:50.408Z,26.10
2023-03-29T03:13:22.027Z,29.27
2023-03-29T03:13:53.663Z,22.13
2023-03-29T03:14:25.368Z,21.90
2023-03-29T03:14:56.955Z,21.33
2023-03-29T03:15:28.657Z,24.80
2023-03-29T03:16:01.287Z,24.17
2023-03-29T03:16:33.072Z,22.45
2023-03-29T03:17:04.961Z,21.92
2023-03-29T03:17:40.245Z,24.58
2023-03-29T03:18:13.072Z,24.52
2023-03-29T03:18:46.026Z,27.77
2023-03-29T03:19:17.923Z,26.90
2023-03-29T03:19:49.668Z,26.17
2023-03-29T03:20:24.132Z,22.65
2023-03-29T03:21:01.912Z,24.40
2023-03-29T03:21:35.333Z,22.05
2023-03-29T03:22:07.804Z,21.08
2023-03-29T03:22:45.729Z,25.27
2023-03-29T03:23:17.776Z,25.88
2023-03-29T03:23:49.463Z,26.95
2023-03-29T03:24:21.104Z,23.63
2023-03-29T03:24:52.711Z,21.33
2023-03-29T03:25:24.447Z,23.10
2023-03-29T03:25:56.679Z,26.17
2023-03-29T03:26:30.185Z,25.25
2023-03-29T03:27:02.001Z,24.23
2023-03-29T03:27:34.105Z,25.30
2023-03-29T03:28:05.932Z,27.25
2023-03-29T03:28:37.794Z,25.52
2023-03-29T03:29:09.790Z,26.65
2023-03-29T03:29:41.613Z,28.55
2023-03-29T03:30:13.493Z,25.77
2023-03-29T03:30:45.212Z,27.65
2023-03-29T03:31:17.688Z,24.50
2023-03-29T03:31:50.347Z,28.25
2023-03-29T03:32:23.929Z,24.40
2023-03-29T03:32:55.676Z,22.23
2023-03-29T03:33:28.375Z,28.15
2023-03-29T03:34:00.102Z,28.30
2023-03-29T03:34:31.741Z,27.05
2023-03-29T03:35:05.668Z,25.75
2023-03-29T03:35:38.746Z,24.08
2023-03-29T03:36:11.446Z,23.98
2023-03-29T03:36:43.159Z,22.85
2023-03-29T03:37:15.558Z,27.10
2023-03-29T03:37:47.181Z,23.65
2023-03-29T03:38:18.916Z,23.50
2023-03-29T03:38:50.720Z,25.13
2023-03-29T03:39:22.974Z,27.10
2023-03-29T03:39:54.941Z,22.80
2023-03-29T03:40:28.259Z,24.45
2023-03-29T03:41:01.579Z,30.27
2023-03-29T03:41:34.704Z,25.33
2023-03-29T03:42:08.446Z,23.52
2023-03-29T03:42:41.323Z,26.05
2023-03-29T03:43:13.163Z,25.05
2023-03-29T03:43:48.860Z,26.88
2023-03-29T03:44:20.559Z,23.58
2023-03-29T03:44:52.184Z,25.38
2023-03-29T03:45:24.808Z,24.02
2023-03-29T03:45:56.694Z,22.02
2023-03-29T03:46:29.638Z,24.70
2023-03-29T03:47:01.518Z,27.80
2023-03-29T03:47:33.210Z,29.20
2023-03-29T03:48:05.101Z,27.73
2023-03-29T03:48:37.348Z,29.05
2023-03-29T03:49:09.009Z,39.33
2023-03-29T03:49:41.147Z,30.48
2023-03-29T03:50:13.788Z,34.45
2023-03-29T03:50:50.532Z,35.38
2023-03-29T03:51:22.396Z,35.40
2023-03-29T03:51:54.201Z,39.38
2023-03-29T03:52:26.316Z,37.75
2023-03-29T03:52:57.917Z,37.88
2023-03-29T03:53:29.576Z,41.47
2023-03-29T03:54:01.199Z,39.30
2023-03-29T03:54:33.400Z,36.13
2023-03-29T03:55:05.483Z,34.30
2023-03-29T03:55:37.051Z,32.38
2023-03-29T03:56:09.337Z,27.75
2023-03-29T03:56:41.003Z,22.92
2023-03-29T03:57:12.860Z,20.60
2023-03-29T03:57:44.753Z,17.77
2023-03-29T03:58:17.561Z,18.63
2023-03-29T03:58:49.204Z,16.73
2023-03-29T03:59:21.021Z,15.65
2023-03-29T03:59:52.969Z,17.85
2023-03-29T04:00:24.822Z,21.38
2023-03-29T04:00:56.552Z,21.08
2023-03-29T04:01:28.179Z,19.90
2023-03-29T04:02:00.371Z,17.83
2023-03-29T04:02:32.870Z,19.77
2023-03-29T04:03:06.147Z,18.52
2023-03-29T04:03:39.255Z,19.02
2023-03-29T04:04:11.623Z,26.33
2023-03-29T04:04:43.210Z,24.83
2023-03-29T04:05:16.418Z,31.33
2023-03-29T04:05:48.930Z,28.05
2023-03-29T04:06:20.752Z,54.53
2023-03-29T04:06:52.906Z,64.45
2023-03-29T04:07:25.427Z,72.97
2023-03-29T04:07:57.213Z,63.00
2023-03-29T04:08:28.852Z,59.47
2023-03-29T04:09:00.424Z,45.33
2023-03-29T04:09:34.081Z,37.13
2023-03-29T04:10:06.586Z,35.63
2023-03-29T04:10:38.567Z,41.63
2023-03-29T04:11:10.659Z,35.53
2023-03-29T04:11:42.417Z,32.17
2023-03-29T04:12:14.106Z,33.63
2023-03-29T04:12:45.661Z,48.38
2023-03-29T04:13:17.346Z,55.25
2023-03-29T04:13:48.949Z,63.35
2023-03-29T04:14:20.726Z,66.40
2023-03-29T04:14:52.455Z,65.25
2023-03-29T04:15:24.277Z,68.07
2023-03-29T04:15:58.222Z,62.60
2023-03-29T04:16:31.910Z,61.38
2023-03-29T04:17:03.475Z,58.17
2023-03-29T04:17:35.867Z,60.90
2023-03-29T04:18:07.785Z,58.53
2023-03-29T04:18:39.672Z,60.13
2023-03-29T04:19:11.798Z,60.88
2023-03-29T04:19:43.451Z,57.60
2023-03-29T04:20:15.178Z,66.10
2023-03-29T04:20:47.864Z,64.00
2023-03-29T04:21:21.327Z,60.00
2023-03-29T04:21:53.381Z,45.03
2023-03-29T04:22:28.562Z,44.55
2023-03-29T04:23:00.199Z,39.33
2023-03-29T04:23:31.809Z,41.30
2023-03-29T04:24:03.586Z,34.90
2023-03-29T04:24:35.272Z,38.65
2023-03-29T04:25:08.273Z,39.70
2023-03-29T04:25:40.751Z,33.03
2023-03-29T04:26:13.756Z,34.88
2023-03-29T04:26:45.386Z,30.67
2023-03-29T04:27:17.356Z,36.15
2023-03-29T04:27:51.799Z,35.90
2023-03-29T04:28:23.610Z,35.00
2023-03-29T04:28:55.382Z,32.58
2023-03-29T04:29:27.048Z,29.40
2023-03-29T04:29:58.630Z,32.60
2023-03-29T04:30:30.476Z,29.48
2023-03-29T04:31:02.473Z,23.90
2023-03-29T04:31:34.416Z,26.02
2023-03-29T04:32:06.114Z,21.40
2023-03-29T04:32:38.135Z,22.13
2023-03-29T04:33:10.381Z,22.98
2023-03-29T04:33:42.577Z,24.17
2023-03-29T04:34:14.263Z,22.70
2023-03-29T04:34:45.955Z,25.23
2023-03-29T04:35:18.079Z,25.92
2023-03-29T04:35:49.838Z,40.78
2023-03-29T04:36:21.652Z,41.88
2023-03-29T04:36:53.343Z,41.53
2023-03-29T04:37:25.031Z,41.08
2023-03-29T04:37:56.620Z,39.65
2023-03-29T04:38:28.224Z,39.22
2023-03-29T04:39:01.843Z,77.55
2023-03-29T04:39:34.395Z,87.53
2023-03-29T04:40:09.844Z,108.13
2023-03-29T04:40:42.164Z,114.55
2023-03-29T04:41:15.469Z,122.45
2023-03-29T04:41:47.482Z,114.63
2023-03-29T04:42:19.224Z,117.72
2023-03-29T04:42:51.791Z,113.40
2023-03-29T04:43:23.760Z,112.50
2023-03-29T04:43:56.267Z,103.35
2023-03-29T04:44:28.162Z,103.82
2023-03-29T04:45:01.081Z,94.07
2023-03-29T04:45:32.786Z,97.72
2023-03-29T04:46:07.387Z,91.72
2023-03-29T04:46:40.385Z,83.13
2023-03-29T04:47:13.358Z,80.00
2023-03-29T04:47:45.905Z,80.25
2023-03-29T04:48:17.555Z,76.43
2023-03-29T04:48:49.163Z,70.53
2023-03-29T04:49:20.761Z,67.65
2023-03-29T04:49:52.472Z,64.68
2023-03-29T04:50:24.054Z,62.28
2023-03-29T04:50:55.805Z,64.85
2023-03-29T04:51:27.557Z,78.18
2023-03-29T04:52:00.970Z,52.13
2023-03-29T04:52:33.455Z,37.67
2023-03-29T04:53:05.998Z,41.17
2023-03-29T04:53:37.776Z,30.15
2023-03-29T04:54:09.593Z,24.65
2023-03-29T04:54:41.211Z,28.35
2023-03-29T04:55:13.032Z,53.15
2023-03-29T04:55:47.001Z,26.00
2023-03-29T04:56:18.783Z,33.45
2023-03-29T04:56:52.256Z,38.63
2023-03-29T04:57:24.022Z,39.50
2023-03-29T04:57:55.822Z,31.05
2023-03-29T04:58:32.064Z,34.08
2023-03-29T04:59:04.405Z,34.38
2023-03-29T04:59:36.436Z,40.40
2023-03-29T05:00:15.418Z,34.50
2023-03-29T05:00:47.303Z,47.28
2023-03-29T05:01:19.850Z,52.30
2023-03-29T05:01:51.765Z,56.42
2023-03-29T05:02:23.787Z,58.60
2023-03-29T05:02:55.545Z,67.55
2023-03-29T05:03:27.315Z,66.72
2023-03-29T05:03:59.024Z,59.33
2023-03-29T05:04:32.606Z,61.92
2023-03-29T05:05:04.589Z,59.67
2023-03-29T05:05:36.222Z,64.15
2023-03-29T05:06:10.720Z,61.38
2023-03-29T05:06:42.359Z,70.70
2023-03-29T05:07:15.452Z,75.35
2023-03-29T05:07:47.132Z,73.72
2023-03-29T05:08:18.896Z,85.13
2023-03-29T05:08:51.347Z,79.35
2023-03-29T05:09:24.059Z,83.15
2023-03-29T05:09:55.938Z,88.47
2023-03-29T05:10:27.562Z,94.72
2023-03-29T05:10:59.229Z,88.35
2023-03-29T05:11:31.690Z,84.30
2023-03-29T05:12:03.453Z,87.00
2023-03-29T05:12:35.239Z,80.13
2023-03-29T05:13:06.846Z,78.43
2023-03-29T05:13:38.483Z,71.10
2023-03-29T05:14:10.313Z,77.90
2023-03-29T05:14:41.897Z,99.65
2023-03-29T05:15:13.524Z,95.90
2023-03-29T05:15:45.165Z,99.43
2023-03-29T05:16:16.960Z,108.43
2023-03-29T05:16:48.763Z,121.65
2023-03-29T05:17:21.610Z,135.20
2023-03-29T05:17:53.545Z,125.22
2023-03-29T05:18:25.331Z,154.75
2023-03-29T05:18:57.716Z,150.25
2023-03-29T05:19:29.361Z,146.88
2023-03-29T05:20:01.496Z,155.20
2023-03-29T05:20:33.151Z,143.02
2023-03-29T05:21:05.143Z,149.23
2023-03-29T05:21:37.093Z,169.75
2023-03-29T05:22:09.207Z,158.60
2023-03-29T05:22:40.923Z,158.77
2023-03-29T05:23:12.561Z,174.25
2023-03-29T05:23:45.060Z,138.02
2023-03-29T05:24:17.872Z,89.70
2023-03-29T05:24:50.516Z,77.80
2023-03-29T05:25:22.931Z,76.22
2023-03-29T05:25:54.676Z,72.72
2023-03-29T05:26:26.605Z,71.90
2023-03-29T05:26:58.300Z,42.72
2023-03-29T05:27:29.927Z,30.05
2023-03-29T05:28:02.423Z,41.35
2023-03-29T05:28:34.037Z,55.30
2023-03-29T05:29:07.328Z,47.00
2023-03-29T05:29:39.032Z,44.10
2023-03-29T05:30:11.689Z,45.95
2023-03-29T05:30:43.427Z,50.70
2023-03-29T05:31:16.980Z,58.55
2023-03-29T05:31:49.540Z,87.85
2023-03-29T05:32:21.145Z,88.38
2023-03-29T05:32:53.035Z,90.47
2023-03-29T05:33:24.731Z,94.45
2023-03-29T05:33:57.941Z,85.10
2023-03-29T05:34:31.478Z,85.97
2023-03-29T05:35:03.177Z,75.80
2023-03-29T05:35:36.076Z,67.93
2023-03-29T05:36:11.028Z,68.88
2023-03-29T05:36:42.920Z,68.97
2023-03-29T05:37:14.494Z,54.60
2023-03-29T05:37:47.387Z,60.15
2023-03-29T05:38:19.028Z,48.50
2023-03-29T05:38:50.916Z,43.15
2023-03-29T05:39:23.508Z,52.80
2023-03-29T05:39:55.243Z,56.13
2023-03-29T05:40:37.925Z,57.25
2023-03-29T05:41:10.846Z,44.00
2023-03-29T05:41:42.426Z,36.00
2023-03-29T05:42:15.631Z,38.03
2023-03-29T05:42:47.287Z,39.30
2023-03-29T05:43:18.929Z,39.28
2023-03-29T05:43:50.725Z,59.47
2023-03-29T05:44:22.417Z,77.35
2023-03-29T05:44:55.242Z,80.32
2023-03-29T05:45:29.095Z,89.25
2023-03-29T05:46:00.922Z,79.97
2023-03-29T05:46:32.692Z,85.13
2023-03-29T05:47:04.307Z,81.45
2023-03-29T05:47:36.227Z,78.00
2023-03-29T05:48:08.979Z,70.28
2023-03-29T05:48:40.865Z,73.35
2023-03-29T05:49:12.611Z,81.78
2023-03-29T05:49:44.217Z,88.78
2023-03-29T05:50:15.947Z,95.15
2023-03-29T05:50:49.077Z,86.30
2023-03-29T05:51:24.404Z,80.38
2023-03-29T05:51:57.134Z,73.32
2023-03-29T05:52:28.912Z,79.95
2023-03-29T05:53:00.595Z,85.78
2023-03-29T05:53:32.393Z,82.55
2023-03-29T05:54:04.274Z,81.72
2023-03-29T05:54:35.880Z,75.10
2023-03-29T05:55:08.129Z,86.03
2023-03-29T05:55:39.808Z,85.25
2023-03-29T05:56:11.869Z,76.15
2023-03-29T05:56:43.751Z,78.78
2023-03-29T05:57:15.470Z,78.35
2023-03-29T05:57:47.704Z,80.05
2023-03-29T05:58:21.531Z,77.20
2023-03-29T05:58:56.136Z,80.97
2023-03-29T05:59:29.797Z,76.60
2023-03-29T06:00:02.125Z,78.53
2023-03-29T06:00:37.067Z,80.32
2023-03-29T06:01:13.833Z,82.07
2023-03-29T06:01:48.698Z,80.32
2023-03-29T06:02:20.449Z,86.28
2023-03-29T06:03:03.752Z,74.35
2023-03-29T06:03:42.310Z,88.15
2023-03-29T06:04:15.447Z,88.60
2023-03-29T06:04:47.145Z,65.22
2023-03-29T06:05:20.181Z,76.65
2023-03-29T06:06:04.956Z,67.68
2023-03-29T06:06:36.556Z,72.32
2023-03-29T06:07:08.814Z,72.30
2023-03-29T06:07:40.429Z,68.97
2023-03-29T06:08:12.881Z,77.40
2023-03-29T06:08:45.202Z,72.75
2023-03-29T06:09:16.832Z,72.60
2023-03-29T06:09:48.558Z,74.40
2023-03-29T06:10:20.660Z,72.70
2023-03-29T06:11:05.899Z,73.10
2023-03-29T06:11:37.728Z,82.55
2023-03-29T06:12:09.707Z,74.55
2023-03-29T06:12:41.947Z,76.38
2023-03-29T06:13:13.544Z,73.68
2023-03-29T06:13:45.202Z,74.95
2023-03-29T06:14:17.371Z,72.88
2023-03-29T06:14:49.315Z,70.15
2023-03-29T06:15:22.140Z,72.90
2023-03-29T06:15:53.782Z,68.38
2023-03-29T06:16:25.985Z,75.95
2023-03-29T06:16:57.623Z,74.50
2023-03-29T06:17:29.291Z,67.32
2023-03-29T06:18:04.692Z,69.93
2023-03-29T06:18:38.207Z,66.72
2023-03-29T06:19:09.809Z,64.15
2023-03-29T06:19:41.415Z,67.68
2023-03-29T06:20:14.034Z,69.82
2023-03-29T06:20:49.484Z,63.67
2023-03-29T06:21:22.002Z,65.72
2023-03-29T06:21:54.343Z,61.08
2023-03-29T06:22:26.191Z,66.80
2023-03-29T06:22:58.439Z,60.92
2023-03-29T06:23:30.786Z,71.43
2023-03-29T06:24:02.514Z,68.38
2023-03-29T06:24:34.168Z,72.43
2023-03-29T06:25:07.221Z,64.63
2023-03-29T06:25:39.566Z,68.85
2023-03-29T06:26:11.173Z,66.18
2023-03-29T06:26:42.825Z,72.35
2023-03-29T06:27:14.433Z,69.65
2023-03-29T06:27:49.973Z,63.88
2023-03-29T06:28:22.761Z,49.25
2023-03-29T06:28:54.386Z,54.60
2023-03-29T06:29:26.017Z,58.15
2023-03-29T06:29:57.610Z,56.10
2023-03-29T06:30:29.195Z,53.13
2023-03-29T06:31:03.779Z,53.33
2023-03-29T06:31:36.674Z,44.88
2023-03-29T06:32:08.383Z,44.33
2023-03-29T06:32:40.226Z,36.78
2023-03-29T06:33:12.910Z,35.13
2023-03-29T06:33:44.556Z,38.42
2023-03-29T06:34:17.414Z,41.40
2023-03-29T06:34:49.745Z,36.83
2023-03-29T06:35:21.886Z,31.48
2023-03-29T06:35:53.588Z,32.88
2023-03-29T06:36:25.929Z,32.17
2023-03-29T06:36:57.746Z,37.08
2023-03-29T06:37:29.419Z,27.60
2023-03-29T06:38:01.539Z,31.40
2023-03-29T06:38:34.084Z,30.55
2023-03-29T06:39:08.800Z,23.65
2023-03-29T06:39:41.136Z,21.88
2023-03-29T06:40:13.291Z,22.13
2023-03-29T06:40:45.386Z,18.35
2023-03-29T06:41:17.006Z,15.05
2023-03-29T06:41:49.103Z,19.20
2023-03-29T06:42:21.937Z,17.60
2023-03-29T06:42:59.512Z,19.30
2023-03-29T06:43:33.410Z,15.85
2023-03-29T06:44:06.786Z,17.20
2023-03-29T06:44:38.396Z,17.67
2023-03-29T06:45:10.555Z,24.52
2023-03-29T06:45:42.746Z,19.42
2023-03-29T06:46:14.484Z,18.52
2023-03-29T06:46:46.527Z,25.85
2023-03-29T06:47:18.315Z,19.63
2023-03-29T06:47:50.811Z,18.60
2023-03-29T06:48:22.723Z,14.63
2023-03-29T06:48:54.378Z,15.60
2023-03-29T06:49:26.415Z,16.35
2023-03-29T06:49:58.129Z,12.60
2023-03-29T06:50:31.630Z,15.40
2023-03-29T06:51:03.587Z,15.00
2023-03-29T06:51:35.472Z,15.77
2023-03-29T06:52:07.157Z,17.75
2023-03-29T06:52:38.787Z,14.57
2023-03-29T06:53:10.554Z,15.23
2023-03-29T06:53:42.151Z,13.00
2023-03-29T06:54:13.714Z,13.40
2023-03-29T06:54:45.504Z,16.73
2023-03-29T06:55:18.469Z,15.90
2023-03-29T06:55:52.067Z,13.63
2023-03-29T06:56:23.939Z,17.05
2023-03-29T06:56:55.691Z,15.70
2023-03-29T06:57:28.641Z,17.75
2023-03-29T06:58:02.672Z,17.70
2023-03-29T06:58:35.750Z,17.48
2023-03-29T06:59:07.383Z,22.67
2023-03-29T06:59:38.984Z,19.60
2023-03-29T07:00:16.941Z,17.58
2023-03-29T07:00:48.641Z,19.13
2023-03-29T07:01:20.769Z,12.05
2023-03-29T07:01:55.427Z,17.70
2023-03-29T07:02:27.404Z,17.83
2023-03-29T07:03:00.906Z,18.75
2023-03-29T07:03:35.066Z,17.85
2023-03-29T07:04:08.957Z,14.35
2023-03-29T07:04:41.978Z,18.63
2023-03-29T07:05:14.492Z,14.38
2023-03-29T07:05:47.856Z,17.10
2023-03-29T07:06:20.578Z,16.25
2023-03-29T07:07:01.670Z,16.55
2023-03-29T07:07:53.654Z,15.80
2023-03-29T07:08:31.273Z,16.23
2023-03-29T07:09:06.653Z,15.02
2023-03-29T07:09:40.031Z,14.57
2023-03-29T07:10:12.906Z,14.50
2023-03-29T07:10:47.593Z,14.50
2023-03-29T07:11:20.426Z,13.68
2023-03-29T07:11:52.101Z,14.52
2023-03-29T07:12:23.705Z,14.38
2023-03-29T07:12:55.532Z,14.98
2023-03-29T07:13:27.734Z,16.02
2023-03-29T07:13:59.590Z,16.50
2023-03-29T07:14:31.541Z,17.50
2023-03-29T07:15:04.572Z,17.73
2023-03-29T07:15:36.237Z,16.27
2023-03-29T07:16:12.769Z,18.60
2023-03-29T07:16:47.444Z,17.20
2023-03-29T07:17:19.262Z,17.83
2023-03-29T07:17:51.471Z,17.80
2023-03-29T07:18:23.329Z,17.42
2023-03-29T07:18:55.328Z,16.50
2023-03-29T07:19:30.261Z,16.02
2023-03-29T07:20:02.513Z,17.15
2023-03-29T07:20:34.411Z,17.55
2023-03-29T07:21:06.503Z,16.80
2023-03-29T07:21:38.280Z,15.30
2023-03-29T07:22:09.999Z,14.50